createdAt,value
2019-04-28T00:02:31.025Z,97784.17
2019-04-28T00:05:03.043Z,97788.44
2019-04-28T00:07:34.732Z,97782.80
2019-04-28T00:10:10.926Z,97785.80
2019-04-28T00:12:43.386Z,97783.83
2019-04-28T00:15:16.092Z,97785.16
2019-04-28T00:17:47.930Z,97787.86
2019-04-28T00:20:26.820Z,97781.30
2019-04-28T00:23:11.607Z,97791.92
2019-04-28T00:25:57.367Z,97789.16
2019-04-28T00:28:31.151Z,97784.31
2019-04-28T00:31:04.729Z,97788.34
2019-04-28T00:33:37.452Z,97783.48
2019-04-28T00:36:11.549Z,97779.16
2019-04-28T00:38:43.337Z,97781.88
2019-04-28T00:41:15.049Z,97782.10
2019-04-28T00:43:47.814Z,97777.22
2019-04-28T00:46:24.875Z,97784.48
2019-04-28T00:48:57.034Z,97776.96
2019-04-28T00:51:31.396Z,97780.45
2019-04-28T00:54:04.914Z,97770.75
2019-04-28T00:56:36.672Z,97773.48
2019-04-28T00:59:09.321Z,97773.16
2019-04-28T01:01:57.255Z,97769.90
2019-04-28T01:04:28.809Z,97771.44
2019-04-28T01:07:01.617Z,97766.11
2019-04-28T01:09:34.762Z,97764.41
2019-04-28T01:12:07.590Z,97767.12
2019-04-28T01:14:43.364Z,97766.85
2019-04-28T01:17:26.733Z,97772.23
2019-04-28T01:20:00.907Z,97779.88
2019-04-28T01:22:35.812Z,97780.43
2019-04-28T01:25:10.653Z,97783.70
2019-04-28T01:27:56.295Z,97784.26
2019-04-28T01:31:01.158Z,97783.91
2019-04-28T01:34:03.543Z,97788.08
2019-04-28T01:36:37.536Z,97788.29
2019-04-28T01:39:10.141Z,97789.11
2019-04-28T01:41:42.078Z,97788.55
2019-04-28T01:44:13.961Z,97792.91
2019-04-28T01:46:45.665Z,97800.73
2019-04-28T01:49:19.604Z,97797.47
2019-04-28T01:52:00.939Z,97789.85
2019-04-28T01:54:34.048Z,97798.23
2019-04-28T01:57:06.927Z,97787.99
2019-04-28T01:59:40.268Z,97786.09
2019-04-28T02:02:12.169Z,97789.03
2019-04-28T02:04:43.691Z,97793.06
2019-04-28T02:07:15.836Z,97794.41
2019-04-28T02:09:49.458Z,97789.80
2019-04-28T02:12:21.838Z,97791.45
2019-04-28T02:14:54.180Z,97786.77
2019-04-28T02:17:25.722Z,97789.73
2019-04-28T02:20:00.417Z,97793.23
2019-04-28T02:22:42.879Z,97793.00
2019-04-28T02:25:15.625Z,97793.80
2019-04-28T02:27:47.219Z,97798.36
2019-04-28T02:30:20.916Z,97789.13
2019-04-28T02:32:57.867Z,97802.65
2019-04-28T02:35:31.635Z,97789.69
2019-04-28T02:38:03.631Z,97789.66
2019-04-28T02:40:35.418Z,97786.95
2019-04-28T02:43:11.382Z,97786.69
2019-04-28T02:45:53.069Z,97778.04
2019-04-28T02:48:25.453Z,97779.10
2019-04-28T02:51:14.710Z,97773.42
2019-04-28T02:53:51.156Z,97774.27
2019-04-28T02:56:23.002Z,97777.80
2019-04-28T02:58:54.581Z,97771.36
2019-04-28T03:01:26.933Z,97770.83
2019-04-28T03:04:01.136Z,97773.86
2019-04-28T03:06:34.012Z,97772.53
2019-04-28T03:09:07.147Z,97761.94
2019-04-28T03:11:41.060Z,97766.53
2019-04-28T03:14:13.734Z,97768.20
2019-04-28T03:16:45.385Z,97762.50
2019-04-28T03:19:17.690Z,97770.91
2019-04-28T03:21:51.259Z,97765.50
2019-04-28T03:24:24.226Z,97771.44
2019-04-28T03:27:07.000Z,97773.09
2019-04-28T03:29:52.607Z,97779.32
2019-04-28T03:32:55.403Z,97778.23
2019-04-28T03:35:23.364Z,97773.14
2019-04-28T03:38:01.021Z,97772.08
2019-04-28T03:40:33.794Z,97779.40
2019-04-28T03:43:07.561Z,97782.37
2019-04-28T03:45:46.074Z,97784.31
2019-04-28T03:48:21.065Z,97784.07
2019-04-28T03:50:53.653Z,97783.75
2019-04-28T03:53:26.891Z,97783.75
2019-04-28T03:56:01.520Z,97779.69
2019-04-28T03:58:33.992Z,97780.56
2019-04-28T04:01:05.998Z,97788.05
2019-04-28T04:03:41.501Z,97788.39
2019-04-28T04:06:12.355Z,97789.70
2019-04-28T04:08:50.489Z,97792.63
2019-04-28T04:11:37.963Z,97794.55
2019-04-28T04:14:21.081Z,97798.31
2019-04-28T04:17:04.891Z,97795.93
2019-04-28T04:19:40.718Z,97809.98
2019-04-28T04:22:13.314Z,97804.55
2019-04-28T04:24:45.322Z,97806.17
2019-04-28T04:27:20.772Z,97802.64
2019-04-28T04:29:51.462Z,97807.52
2019-04-28T04:32:27.167Z,97818.82
2019-04-28T04:35:00.678Z,97823.44
2019-04-28T04:37:33.921Z,97820.77
2019-04-28T04:40:11.182Z,97816.33
2019-04-28T04:42:41.450Z,97816.88
2019-04-28T04:45:13.051Z,97817.44
2019-04-28T04:47:46.518Z,97821.50
2019-04-28T04:50:20.808Z,97829.70
2019-04-28T04:52:53.640Z,97827.73
2019-04-28T04:55:30.668Z,97837.44
2019-04-28T04:58:02.040Z,97831.82
2019-04-28T05:00:55.022Z,97852.64
2019-04-28T05:03:31.424Z,97834.00
2019-04-28T05:06:24.854Z,97836.52
2019-04-28T05:08:59.870Z,97841.34
2019-04-28T05:11:31.228Z,97839.28
2019-04-28T05:14:02.874Z,97839.92
2019-04-28T05:16:36.953Z,97843.72
2019-04-28T05:19:10.097Z,97848.97
2019-04-28T05:21:41.970Z,97857.14
2019-04-28T05:24:22.277Z,97849.81
2019-04-28T05:26:54.377Z,97855.11
2019-04-28T05:29:27.038Z,97852.69
2019-04-28T05:32:03.374Z,97861.58
2019-04-28T05:34:41.495Z,97858.05
2019-04-28T05:37:10.829Z,97858.08
2019-04-28T05:39:43.560Z,97864.58
2019-04-28T05:42:16.808Z,97853.46
2019-04-28T05:44:50.166Z,97860.63
2019-04-28T05:47:21.750Z,97863.09
2019-04-28T05:50:12.808Z,97863.34
2019-04-28T05:53:06.949Z,97863.60
2019-04-28T05:55:50.195Z,97867.80
2019-04-28T05:58:34.239Z,97868.59
2019-04-28T06:01:22.652Z,97867.64
2019-04-28T06:03:57.922Z,97862.70
2019-04-28T06:06:35.442Z,97875.89
2019-04-28T06:09:21.396Z,97870.48
2019-04-28T06:11:54.453Z,97877.25
2019-04-28T06:14:30.029Z,97866.89
2019-04-28T06:17:04.221Z,97880.98
2019-04-28T06:19:37.275Z,97877.09
2019-04-28T06:22:10.229Z,97878.17
2019-04-28T06:24:42.063Z,97889.30
2019-04-28T06:27:14.270Z,97889.83
2019-04-28T06:29:46.664Z,97890.02
2019-04-28T06:32:19.738Z,97887.09
2019-04-28T06:34:51.363Z,97884.05
2019-04-28T06:37:24.587Z,97880.72
2019-04-28T06:39:57.288Z,97884.97
2019-04-28T06:42:31.073Z,97883.02
2019-04-28T06:45:03.393Z,97884.92
2019-04-28T06:47:36.972Z,97887.47
2019-04-28T06:50:09.586Z,97890.09
2019-04-28T06:52:44.466Z,97890.39
2019-04-28T06:55:15.994Z,97898.48
2019-04-28T06:57:49.338Z,97896.28
2019-04-28T07:00:21.301Z,97892.20
2019-04-28T07:02:53.288Z,97898.67
2019-04-28T07:05:26.023Z,97891.42
2019-04-28T07:07:57.660Z,97901.22
2019-04-28T07:10:29.646Z,97908.50
2019-04-28T07:13:02.472Z,97907.94
2019-04-28T07:15:34.459Z,97912.58
2019-04-28T07:18:08.117Z,97912.58
2019-04-28T07:21:02.274Z,97919.45
2019-04-28T07:23:35.276Z,97911.52
2019-04-28T07:26:06.862Z,97914.05
2019-04-28T07:28:40.300Z,97909.30
2019-04-28T07:31:14.760Z,97909.85
2019-04-28T07:33:46.310Z,97920.07
2019-04-28T07:36:19.773Z,97916.75
2019-04-28T07:38:53.460Z,97927.90
2019-04-28T07:41:27.709Z,97926.52
2019-04-28T07:44:01.727Z,97936.17
2019-04-28T07:46:33.680Z,97934.84
2019-04-28T07:49:06.291Z,97943.23
2019-04-28T07:51:55.022Z,97934.84
2019-04-28T07:54:28.627Z,97934.64
2019-04-28T07:57:02.230Z,97937.82
2019-04-28T07:59:33.827Z,97928.45
2019-04-28T08:02:07.603Z,97935.87
2019-04-28T08:04:39.282Z,97933.47
2019-04-28T08:07:12.285Z,97937.77
2019-04-28T08:09:46.016Z,97942.64
2019-04-28T08:12:19.657Z,97937.96
2019-04-28T08:14:55.382Z,97941.49
2019-04-28T08:17:29.357Z,97939.84
2019-04-28T08:20:01.178Z,97948.65
2019-04-28T08:22:33.123Z,97949.12
2019-04-28T08:25:06.097Z,97947.56
2019-04-28T08:27:39.381Z,97943.00
2019-04-28T08:30:13.484Z,97943.00
2019-04-28T08:32:52.701Z,97954.23
2019-04-28T08:35:25.205Z,97948.47
2019-04-28T08:37:59.252Z,97955.59
2019-04-28T08:40:30.850Z,97957.27
2019-04-28T08:43:03.359Z,97958.63
2019-04-28T08:45:35.365Z,97957.73
2019-04-28T08:48:09.708Z,97956.39
2019-04-28T08:50:41.666Z,97955.53
2019-04-28T08:53:14.071Z,97960.97
2019-04-28T08:55:46.851Z,97963.81
2019-04-28T08:58:19.155Z,97960.62
2019-04-28T09:00:52.395Z,97960.58
2019-04-28T09:03:25.777Z,97977.25
2019-04-28T09:06:01.482Z,97962.10
2019-04-28T09:08:34.154Z,97953.16
2019-04-28T09:11:07.456Z,97965.34
2019-04-28T09:13:39.812Z,97978.64
2019-04-28T09:16:14.053Z,97961.05
2019-04-28T09:18:45.817Z,97965.64
2019-04-28T09:21:19.436Z,97956.52
2019-04-28T09:23:51.103Z,97975.77
2019-04-28T09:26:25.112Z,97959.66
2019-04-28T09:28:56.898Z,97964.64
2019-04-28T09:31:29.274Z,97964.58
2019-04-28T09:34:01.209Z,97965.34
2019-04-28T09:36:35.243Z,97966.23
2019-04-28T09:39:10.101Z,97969.17
2019-04-28T09:41:46.095Z,97983.19
2019-04-28T09:44:19.056Z,97972.89
2019-04-28T09:46:50.909Z,97966.63
2019-04-28T09:49:23.006Z,97988.61
2019-04-28T09:51:55.178Z,97979.43
2019-04-28T09:54:28.328Z,97974.02
2019-04-28T09:57:02.349Z,97965.41
2019-04-28T09:59:34.003Z,97972.34
2019-04-28T10:02:07.281Z,97970.72
2019-04-28T10:04:41.693Z,97972.08
2019-04-28T10:07:13.171Z,97971.77
2019-04-28T10:09:48.871Z,97967.12
2019-04-28T10:12:26.819Z,97967.28
2019-04-28T10:14:55.513Z,97954.98
2019-04-28T10:17:28.243Z,97967.19
2019-04-28T10:20:01.839Z,97968.41
2019-04-28T10:22:38.162Z,97966.79
2019-04-28T10:25:11.090Z,97974.74
2019-04-28T10:27:45.026Z,97977.19
2019-04-28T10:30:19.170Z,97960.28
2019-04-28T10:32:51.534Z,97965.23
2019-04-28T10:35:24.080Z,97963.74
2019-04-28T10:37:56.545Z,97976.06
2019-04-28T10:40:43.182Z,97964.34
2019-04-28T10:43:15.145Z,97961.61
2019-04-28T10:45:48.489Z,97960.05
2019-04-28T10:48:21.622Z,97964.23
2019-04-28T10:50:53.346Z,97973.55
2019-04-28T10:53:29.142Z,97973.72
2019-04-28T10:56:00.709Z,97960.83
2019-04-28T10:58:32.347Z,97978.17
2019-04-28T11:01:05.625Z,97980.97
2019-04-28T11:03:38.963Z,97962.07
2019-04-28T11:06:12.736Z,97959.92
2019-04-28T11:08:58.234Z,97958.25
2019-04-28T11:11:31.922Z,97957.68
2019-04-28T11:14:03.485Z,97962.13
2019-04-28T11:16:37.848Z,97963.16
2019-04-28T11:19:11.654Z,97956.86
2019-04-28T11:21:43.319Z,97964.07
2019-04-28T11:24:15.085Z,97967.25
2019-04-28T11:26:48.613Z,97962.63
2019-04-28T11:29:20.490Z,97962.84
2019-04-28T11:31:52.174Z,97960.98
2019-04-28T11:34:35.530Z,97968.25
2019-04-28T11:37:08.690Z,97977.17
2019-04-28T11:39:41.958Z,97963.45
2019-04-28T11:42:14.799Z,97961.25
2019-04-28T11:44:46.511Z,97958.25
2019-04-28T11:47:21.518Z,97958.54
2019-04-28T11:49:53.590Z,97968.25
2019-04-28T11:52:25.838Z,97959.10
2019-04-28T11:55:01.575Z,97970.02
2019-04-28T11:57:34.375Z,97961.59
2019-04-28T12:00:19.239Z,97965.13
2019-04-28T12:02:54.156Z,97972.36
2019-04-28T12:05:46.015Z,97962.19
2019-04-28T12:08:19.352Z,97966.98
2019-04-28T12:11:04.908Z,97965.98
2019-04-28T12:14:09.136Z,97966.84
2019-04-28T12:16:58.265Z,97961.75
2019-04-28T12:19:41.681Z,97968.09
2019-04-28T12:22:13.317Z,97957.66
2019-04-28T12:24:47.309Z,97953.59
2019-04-28T12:27:21.818Z,97958.95
2019-04-28T12:29:54.648Z,97949.18
2019-04-28T12:32:27.276Z,97941.27
2019-04-28T12:35:01.532Z,97954.09
2019-04-28T12:37:33.274Z,97968.72
2019-04-28T12:40:07.556Z,97946.11
2019-04-28T12:42:40.233Z,97948.59
2019-04-28T12:45:11.993Z,97943.37
2019-04-28T12:47:43.498Z,97955.95
2019-04-28T12:50:29.803Z,97943.97
2019-04-28T12:53:01.492Z,97941.61
2019-04-28T12:55:33.436Z,97945.94
2019-04-28T12:58:08.115Z,97938.67
2019-04-28T13:01:07.027Z,97938.05
2019-04-28T13:04:04.801Z,97933.64
2019-04-28T13:06:36.428Z,97942.64
2019-04-28T13:09:09.352Z,97939.41
2019-04-28T13:11:43.086Z,97954.73
2019-04-28T13:14:15.356Z,97936.78
2019-04-28T13:16:50.827Z,97936.81
2019-04-28T13:19:23.820Z,97929.19
2019-04-28T13:21:58.145Z,97933.31
2019-04-28T13:24:32.809Z,97930.64
2019-04-28T13:27:04.606Z,97932.25
2019-04-28T13:29:36.367Z,97929.78
2019-04-28T13:32:09.841Z,97929.64
2019-04-28T13:34:44.327Z,97932.11
2019-04-28T13:37:17.473Z,97929.58
2019-04-28T13:39:58.075Z,97921.31
2019-04-28T13:42:30.084Z,97924.28
2019-04-28T13:45:09.526Z,97933.49
2019-04-28T13:47:41.260Z,97924.89
2019-04-28T13:50:21.722Z,97924.63
2019-04-28T13:52:54.750Z,97936.41
2019-04-28T13:55:46.239Z,97923.95
2019-04-28T13:58:19.815Z,97931.14
2019-04-28T14:01:13.729Z,97916.80
2019-04-28T14:04:08.152Z,97915.16
2019-04-28T14:06:46.192Z,97929.96
2019-04-28T14:09:19.875Z,97926.22
2019-04-28T14:11:52.243Z,97919.60
2019-04-28T14:14:24.568Z,97928.78
2019-04-28T14:16:57.358Z,97925.31
2019-04-28T14:19:28.888Z,97920.08
2019-04-28T14:22:00.765Z,97918.81
2019-04-28T14:24:32.875Z,97931.23
2019-04-28T14:27:08.437Z,97936.17
2019-04-28T14:29:45.660Z,97926.70
2019-04-28T14:32:18.539Z,97923.02
2019-04-28T14:34:50.659Z,97927.31
2019-04-28T14:37:23.304Z,97946.44
2019-04-28T14:39:55.377Z,97923.98
2019-04-28T14:42:28.358Z,97918.90
2019-04-28T14:44:59.970Z,97927.48
2019-04-28T14:47:34.656Z,97919.19
2019-04-28T14:50:09.121Z,97924.55
2019-04-28T14:52:40.698Z,97935.64
2019-04-28T14:55:12.804Z,97942.44
2019-04-28T14:57:46.011Z,97927.55
2019-04-28T15:00:24.871Z,97942.09
2019-04-28T15:03:02.171Z,97926.31
2019-04-28T15:05:52.726Z,97944.97
2019-04-28T15:08:43.288Z,97934.11
2019-04-28T15:11:28.772Z,97948.63
2019-04-28T15:14:01.667Z,97933.75
2019-04-28T15:16:34.997Z,97931.27
2019-04-28T15:19:07.149Z,97935.33
2019-04-28T15:21:39.223Z,97945.05
2019-04-28T15:24:11.937Z,97952.07
2019-04-28T15:26:46.106Z,97934.19
2019-04-28T15:29:18.689Z,97940.69
2019-04-28T15:31:51.752Z,97949.00
2019-04-28T15:34:26.380Z,97937.95
2019-04-28T15:37:09.134Z,97940.59
2019-04-28T15:39:32.129Z,97961.67
2019-04-28T15:42:03.617Z,97964.05
2019-04-28T15:44:37.337Z,97963.81
2019-04-28T15:47:08.995Z,97935.41
2019-04-28T15:49:40.710Z,97944.05
2019-04-28T15:52:12.230Z,97926.17
2019-04-28T15:54:44.870Z,97923.95
2019-04-28T15:57:16.393Z,97941.11
2019-04-28T15:59:48.560Z,97941.11
2019-04-28T16:02:20.089Z,97930.59
2019-04-28T16:04:52.478Z,97937.88
2019-04-28T16:07:26.280Z,97935.73
2019-04-28T16:10:02.533Z,97936.45
2019-04-28T16:12:35.549Z,97937.31
2019-04-28T16:15:09.536Z,97936.42
2019-04-28T16:17:42.162Z,97939.12
2019-04-28T16:20:15.021Z,97935.56
2019-04-28T16:22:47.179Z,97930.31
2019-04-28T16:25:19.763Z,97925.09
2019-04-28T16:27:55.232Z,97936.44
2019-04-28T16:30:27.796Z,97919.34
2019-04-28T16:33:02.607Z,97927.20
2019-04-28T16:35:34.585Z,97922.58
2019-04-28T16:38:06.189Z,97926.19
2019-04-28T16:40:38.589Z,97908.36
2019-04-28T16:43:11.334Z,97922.89
2019-04-28T16:45:43.015Z,97902.54
2019-04-28T16:48:16.550Z,97925.52
2019-04-28T16:50:49.030Z,97911.14
2019-04-28T16:53:21.749Z,97911.66
2019-04-28T16:56:18.459Z,97922.77
2019-04-28T16:59:07.279Z,97921.91
2019-04-28T17:01:49.167Z,97928.41
2019-04-28T17:04:22.610Z,97925.18
2019-04-28T17:06:55.406Z,97922.17
2019-04-28T17:09:28.511Z,97932.38
2019-04-28T17:12:01.560Z,97924.23
2019-04-28T17:14:34.737Z,97936.44
2019-04-28T17:17:07.891Z,97936.09
2019-04-28T17:19:39.809Z,97929.60
2019-04-28T17:22:11.326Z,97938.57
2019-04-28T17:24:43.620Z,97937.18
2019-04-28T17:27:15.188Z,97935.83
2019-04-28T17:29:51.347Z,97934.48
2019-04-28T17:32:23.794Z,97933.95
2019-04-28T17:34:56.856Z,97941.20
2019-04-28T17:37:29.985Z,97944.61
2019-04-28T17:40:03.247Z,97951.14
2019-04-28T17:42:37.445Z,97957.85
2019-04-28T17:45:12.687Z,97952.67
2019-04-28T17:47:46.198Z,97961.34
2019-04-28T17:50:22.087Z,97958.64
2019-04-28T17:52:55.660Z,97956.73
2019-04-28T17:55:27.910Z,97970.54
2019-04-28T17:57:59.514Z,97957.25
2019-04-28T18:01:05.947Z,97946.17
2019-04-28T18:04:00.995Z,97964.80
2019-04-28T18:06:54.262Z,97962.66
2019-04-28T18:09:26.166Z,97966.44
2019-04-28T18:12:00.773Z,97971.55
2019-04-28T18:14:36.471Z,97979.13
2019-04-28T18:17:29.899Z,97969.02
2019-04-28T18:20:03.292Z,97978.08
2019-04-28T18:22:36.743Z,97983.96
2019-04-28T18:25:10.795Z,97979.35
2019-04-28T18:27:42.608Z,97988.23
2019-04-28T18:30:17.423Z,97997.47
2019-04-28T18:33:19.197Z,97995.25
2019-04-28T18:35:57.886Z,97981.74
2019-04-28T18:38:42.549Z,97987.37
2019-04-28T18:41:33.593Z,97987.07
2019-04-28T18:44:20.746Z,97990.85
2019-04-28T18:46:54.758Z,97997.30
2019-04-28T18:49:27.439Z,97991.08
2019-04-28T18:52:02.830Z,98009.72
2019-04-28T18:54:35.954Z,98005.37
2019-04-28T18:57:07.695Z,98006.81
2019-04-28T18:59:40.518Z,97999.78
2019-04-28T19:02:37.490Z,97998.04
2019-04-28T19:05:13.448Z,97992.64
2019-04-28T19:08:07.316Z,97987.77
2019-04-28T19:10:50.256Z,97991.81
2019-04-28T19:13:28.221Z,97990.81
2019-04-28T19:16:17.694Z,97998.04
2019-04-28T19:18:52.645Z,97982.58
2019-04-28T19:21:25.749Z,97992.59
2019-04-28T19:23:57.753Z,97981.79
2019-04-28T19:26:29.852Z,97983.66
2019-04-28T19:29:02.628Z,97986.45
2019-04-28T19:31:34.708Z,97979.66
2019-04-28T19:34:10.598Z,97973.95
2019-04-28T19:36:45.864Z,97969.90
2019-04-28T19:39:18.626Z,97966.06
2019-04-28T19:41:52.048Z,97962.05
2019-04-28T19:44:25.310Z,97974.48
2019-04-28T19:46:57.635Z,97975.26
2019-04-28T19:49:32.043Z,97955.48
2019-04-28T19:52:05.196Z,97948.45
2019-04-28T19:54:59.298Z,97949.25
2019-04-28T19:57:41.069Z,97956.48
2019-04-28T20:00:33.840Z,97948.94
2019-04-28T20:03:06.402Z,97954.87
2019-04-28T20:05:38.733Z,97936.44
2019-04-28T20:08:10.637Z,97933.17
2019-04-28T20:10:45.213Z,97946.94
2019-04-28T20:13:18.988Z,97942.06
2019-04-28T20:15:51.957Z,97923.64
2019-04-28T20:18:24.383Z,97932.34
2019-04-28T20:20:58.644Z,97933.09
2019-04-28T20:23:32.317Z,97926.95
2019-04-28T20:26:05.778Z,97923.98
2019-04-28T20:28:37.654Z,97921.55
2019-04-28T20:31:09.338Z,97914.79
2019-04-28T20:33:41.249Z,97915.66
2019-04-28T20:36:21.623Z,97910.44
2019-04-28T20:38:57.254Z,97906.09
2019-04-28T20:41:29.825Z,97921.50
2019-04-28T20:44:01.896Z,97913.14
2019-04-28T20:46:34.044Z,97914.75
2019-04-28T20:49:07.153Z,97909.88
2019-04-28T20:51:41.004Z,97907.39
2019-04-28T20:54:12.573Z,97922.80
2019-04-28T20:56:45.279Z,97910.66
2019-04-28T20:59:17.961Z,97917.41
2019-04-28T21:01:50.628Z,97898.77
2019-04-28T21:04:23.070Z,97896.73
2019-04-28T21:06:56.501Z,97896.73
2019-04-28T21:09:28.333Z,97896.25
2019-04-28T21:12:00.644Z,97901.88
2019-04-28T21:14:34.213Z,97900.30
2019-04-28T21:17:07.005Z,97894.07
2019-04-28T21:19:39.915Z,97894.07
2019-04-28T21:22:11.797Z,97900.22
2019-04-28T21:24:44.781Z,97897.00
2019-04-28T21:27:19.744Z,97887.76
2019-04-28T21:29:51.464Z,97889.20
2019-04-28T21:32:23.650Z,97893.43
2019-04-28T21:34:57.575Z,97886.45
2019-04-28T21:37:29.952Z,97875.40
2019-04-28T21:40:01.790Z,97871.64
2019-04-28T21:42:53.773Z,97869.17
2019-04-28T21:45:44.780Z,97872.13
2019-04-28T21:48:34.651Z,97867.78
2019-04-28T21:51:12.045Z,97861.03
2019-04-28T21:53:44.010Z,97856.98
2019-04-28T21:56:15.553Z,97854.58
2019-04-28T21:58:47.208Z,97856.80
2019-04-28T22:01:22.643Z,97854.05
2019-04-28T22:03:54.301Z,97844.60
2019-04-28T22:06:27.391Z,97856.71
2019-04-28T22:09:01.564Z,97854.58
2019-04-28T22:11:34.815Z,97857.58
2019-04-28T22:14:06.945Z,97858.14
2019-04-28T22:16:39.551Z,97853.27
2019-04-28T22:19:13.340Z,97849.78
2019-04-28T22:21:45.108Z,97844.60
2019-04-28T22:24:37.319Z,97832.16
2019-04-28T22:27:11.604Z,97833.84
2019-04-28T22:29:45.344Z,97826.48
2019-04-28T22:32:17.344Z,97835.63
2019-04-28T22:34:49.607Z,97841.08
2019-04-28T22:37:22.065Z,97844.87
2019-04-28T22:39:54.539Z,97826.52
2019-04-28T22:42:26.181Z,97836.02
2019-04-28T22:44:58.924Z,97833.28
2019-04-28T22:47:30.592Z,97826.64
2019-04-28T22:50:06.969Z,97833.91
2019-04-28T22:52:37.507Z,97826.38
2019-04-28T22:55:19.005Z,97824.23
2019-04-28T22:58:03.511Z,97835.31
2019-04-28T23:00:57.162Z,97820.94
2019-04-28T23:03:53.904Z,97812.87
2019-04-28T23:06:26.330Z,97818.23
2019-04-28T23:08:59.342Z,97811.79
2019-04-28T23:11:32.455Z,97809.39
2019-04-28T23:14:06.568Z,97816.97
2019-04-28T23:16:39.459Z,97804.21
2019-04-28T23:19:13.798Z,97797.69
2019-04-28T23:22:10.857Z,97792.88
2019-04-28T23:24:42.606Z,97790.22
2019-04-28T23:27:15.138Z,97787.52
2019-04-28T23:29:46.777Z,97790.79
2019-04-28T23:32:20.318Z,97783.28
2019-04-28T23:34:52.784Z,97780.28
2019-04-28T23:37:25.099Z,97782.45
2019-04-28T23:39:56.913Z,97779.42
2019-04-28T23:42:47.328Z,97780.81
2019-04-28T23:45:18.948Z,97773.05
2019-04-28T23:47:50.871Z,97773.05
2019-04-28T23:50:30.376Z,97771.39
2019-04-28T23:53:11.326Z,97782.16
2019-04-28T23:55:45.187Z,97782.53
2019-04-28T23:58:18.166Z,97779.80
